Time;durP1;ratioP1;P1;durP2;ratioP2;P2;SDS_P1;SDS_P2;PMS_P1;PMS_P2;Temp;Humidity;BMP_temperature;BMP_pressure;BME280_temperature;BME280_humidity;BME280_pressure;Samples;Min_cycle;Max_cycle;Signal;HPM_P1;HPM_P2
2022/10/07 00:00:22;;;;;;;5.75;2.30;;;11.40;76.80;;;;;;5071070;28;20074;-75
2022/10/07 00:02:47;;;;;;;4.50;2.33;;;11.40;76.90;;;;;;5072374;28;20024;-76
2022/10/07 00:05:13;;;;;;;6.50;2.17;;;11.40;76.90;;;;;;5071269;28;20468;-75
2022/10/07 00:07:39;;;;;;;5.75;2.28;;;11.40;77.00;;;;;;5070775;28;20031;-75
2022/10/07 00:10:05;;;;;;;6.22;2.22;;;11.40;77.00;;;;;;5070837;28;20437;-76
2022/10/07 00:12:30;;;;;;;4.53;2.15;;;11.30;77.00;;;;;;5070562;28;20097;-76
2022/10/07 00:14:56;;;;;;;4.97;2.30;;;11.40;77.10;;;;;;5071997;28;20437;-76
2022/10/07 00:17:21;;;;;;;6.57;2.25;;;11.40;77.10;;;;;;5071939;28;20021;-75
2022/10/07 00:19:47;;;;;;;6.88;2.30;;;11.30;77.10;;;;;;5070636;28;20050;-75
2022/10/07 00:22:13;;;;;;;6.05;2.30;;;11.30;77.10;;;;;;5072110;28;20028;-75
2022/10/07 00:24:38;;;;;;;6.70;2.20;;;11.30;77.20;;;;;;5070457;28;20107;-75
2022/10/07 00:27:04;;;;;;;6.55;2.20;;;11.30;77.20;;;;;;5071863;28;20116;-75
2022/10/07 00:29:30;;;;;;;8.80;2.40;;;11.30;77.30;;;;;;5081568;28;20122;-75
2022/10/07 00:31:55;;;;;;;4.15;2.13;;;11.30;77.30;;;;;;5092090;28;20053;-77
2022/10/07 00:34:21;;;;;;;8.43;2.33;;;11.30;77.40;;;;;;5092158;28;20020;-75
2022/10/07 00:36:49;;;;;;;6.13;2.25;;;11.20;77.40;;;;;;5091909;28;20103;-75
2022/10/07 00:39:15;;;;;;;7.50;2.38;;;11.30;77.50;;;;;;5073707;28;20020;-75
2022/10/07 00:41:50;;;;;;;8.07;2.40;;;11.20;77.50;;;;;;5092119;28;20024;-75
2022/10/07 00:44:31;;;;;;;6.40;2.05;;;11.20;77.50;;;;;;5091972;28;20081;-76
2022/10/07 00:47:25;;;;;;;10.13;2.88;;;11.20;77.50;;;;;;5073416;28;20024;-75
2022/10/07 00:50:09;;;;;;;6.60;2.25;;;11.20;77.60;;;;;;5067790;28;20035;-76
2022/10/07 00:52:40;;;;;;;10.15;2.60;;;11.20;77.60;;;;;;5091863;28;20087;-76
2022/10/07 00:55:11;;;;;;;7.80;2.75;;;11.20;77.70;;;;;;5073617;28;20048;-76
2022/10/07 00:57:38;;;;;;;4.25;2.22;;;11.20;77.70;;;;;;5073269;28;20030;-76
2022/10/07 01:00:05;;;;;;;7.93;2.45;;;11.10;77.70;;;;;;5091675;28;20016;-75
2022/10/07 01:02:32;;;;;;;9.43;2.40;;;11.10;77.80;;;;;;5091392;28;20051;-75
2022/10/07 01:05:01;;;;;;;7.20;2.53;;;11.10;78.50;;;;;;5073180;28;20430;-75
2022/10/07 01:07:28;;;;;;;10.90;2.50;;;11.00;77.90;;;;;;5091204;28;20498;-75
2022/10/07 01:09:56;;;;;;;9.10;3.25;;;11.00;78.00;;;;;;5091115;28;20027;-75
2022/10/07 01:12:35;;;;;;;4.72;2.67;;;11.00;78.10;;;;;;5091292;28;20020;-75
2022/10/07 01:15:31;;;;;;;6.68;2.80;;;11.00;78.10;;;;;;5072840;28;20027;-76
2022/10/07 01:18:11;;;;;;;6.47;2.40;;;11.00;78.10;;;;;;5090905;28;20020;-75
2022/10/07 01:21:14;;;;;;;8.13;2.42;;;10.90;78.10;;;;;;5091484;28;20035;-75
2022/10/07 01:24:07;;;;;;;9.23;2.87;;;10.90;78.10;;;;;;5057989;28;20056;-76
2022/10/07 01:26:43;;;;;;;4.13;2.10;;;10.90;78.10;;;;;;5090954;28;20081;-76
2022/10/07 01:29:13;;;;;;;6.00;2.50;;;10.80;78.10;;;;;;5090924;28;20639;-76
2022/10/07 01:31:45;;;;;;;9.70;2.50;;;10.80;78.20;;;;;;5072802;28;20475;-75
2022/10/07 01:34:13;;;;;;;6.00;2.50;;;10.80;78.30;;;;;;5091079;28;20352;-75
2022/10/07 01:36:41;;;;;;;6.88;2.40;;;10.80;78.40;;;;;;5072704;28;20040;-75
2022/10/07 01:39:12;;;;;;;7.25;2.70;;;10.70;78.40;;;;;;5072566;28;20020;-76
2022/10/07 01:41:40;;;;;;;8.25;2.85;;;10.70;78.50;;;;;;5090745;28;20069;-76
2022/10/07 01:44:07;;;;;;;6.60;2.85;;;10.70;78.50;;;;;;5091208;28;20042;-76
2022/10/07 01:46:36;;;;;;;4.57;2.42;;;10.60;78.50;;;;;;5090763;28;20112;-75
2022/10/07 01:49:04;;;;;;;7.75;2.88;;;10.60;78.50;;;;;;5090953;28;20024;-76
2022/10/07 01:51:34;;;;;;;9.50;2.58;;;10.60;78.70;;;;;;5090642;28;20080;-75
2022/10/07 01:54:23;;;;;;;7.72;2.85;;;10.60;78.60;;;;;;5090771;28;20051;-76
2022/10/07 01:57:27;;;;;;;5.43;2.60;;;10.50;78.70;;;;;;5090731;28;20032;-76
2022/10/07 02:00:09;;;;;;;10.07;2.65;;;10.50;78.80;;;;;;5059747;28;20028;-76
2022/10/07 02:03:00;;;;;;;6.00;2.53;;;10.50;78.90;;;;;;5072430;28;20046;-76
2022/10/07 02:05:38;;;;;;;6.13;2.72;;;10.40;78.80;;;;;;5089936;28;20483;-75
2022/10/07 02:08:15;;;;;;;4.70;2.65;;;10.40;78.90;;;;;;5072398;28;20043;-75
2022/10/07 02:11:19;;;;;;;5.00;2.65;;;10.40;79.00;;;;;;5090710;28;20056;-76
2022/10/07 02:14:02;;;;;;;6.85;3.10;;;10.30;79.00;;;;;;5090560;28;20031;-75
2022/10/07 02:16:59;;;;;;;6.93;2.50;;;10.30;79.10;;;;;;5093812;28;20032;-75
2022/10/07 02:19:30;;;;;;;6.15;2.70;;;10.30;79.10;;;;;;5076226;28;20020;-76
2022/10/07 02:21:57;;;;;;;8.40;2.50;;;10.30;79.10;;;;;;5076347;28;20045;-76
2022/10/07 02:24:27;;;;;;;4.88;2.72;;;10.30;79.20;;;;;;5075939;28;20017;-75
2022/10/07 02:26:55;;;;;;;5.28;2.47;;;10.30;79.20;;;;;;5094234;28;20475;-76
2022/10/07 02:29:23;;;;;;;7.22;3.15;;;10.20;79.20;;;;;;5094179;28;20518;-75
2022/10/07 02:31:51;;;;;;;4.68;2.20;;;10.20;79.30;;;;;;5094084;28;20709;-75
2022/10/07 02:34:19;;;;;;;7.15;2.42;;;10.20;79.40;;;;;;5075572;28;20374;-76
2022/10/07 02:36:53;;;;;;;7.25;2.53;;;10.20;79.50;;;;;;5075598;28;20066;-76
2022/10/07 02:39:20;;;;;;;5.70;2.70;;;10.20;79.50;;;;;;5075606;28;20095;-75
2022/10/07 02:42:15;;;;;;;7.38;2.60;;;10.20;79.50;;;;;;5075542;28;20065;-75
2022/10/07 02:44:49;;;;;;;8.40;2.70;;;10.20;79.60;;;;;;5093826;28;20024;-75
2022/10/07 02:47:32;;;;;;;8.05;2.50;;;10.10;79.50;;;;;;5093683;28;20028;-76
2022/10/07 02:50:00;;;;;;;7.38;2.70;;;10.10;79.60;;;;;;5075285;28;20070;-76
2022/10/07 02:52:31;;;;;;;7.88;2.80;;;10.10;79.60;;;;;;5093651;28;20082;-76
2022/10/07 02:55:05;;;;;;;7.85;2.80;;;10.10;79.60;;;;;;5093738;28;20032;-76
2022/10/07 02:57:36;;;;;;;9.00;2.90;;;10.10;79.60;;;;;;5093309;28;20352;-76
2022/10/07 03:00:04;;;;;;;11.50;3.05;;;10.10;79.80;;;;;;5093313;28;20035;-76
2022/10/07 03:02:50;;;;;;;8.23;3.13;;;10.10;79.80;;;;;;5093300;28;20032;-76
2022/10/07 03:05:19;;;;;;;7.40;2.78;;;10.00;79.80;;;;;;5093218;28;20024;-76
2022/10/07 03:07:52;;;;;;;7.43;2.45;;;10.10;79.90;;;;;;5093234;28;20039;-76
2022/10/07 03:10:18;;;;;;;8.80;2.90;;;10.00;79.80;;;;;;5093257;28;20028;-75
2022/10/07 03:12:44;;;;;;;8.02;2.83;;;10.00;79.80;;;;;;5093144;28;20023;-75
2022/10/07 03:15:11;;;;;;;8.43;2.67;;;10.00;79.90;;;;;;5074763;28;20403;-76
2022/10/07 03:17:39;;;;;;;7.47;3.00;;;10.00;79.90;;;;;;5074759;28;20073;-75
2022/10/07 03:20:07;;;;;;;8.32;2.83;;;10.00;80.00;;;;;;5074835;28;20034;-75
2022/10/07 03:22:32;;;;;;;5.57;2.60;;;10.00;80.10;;;;;;5093013;28;20136;-76
2022/10/07 03:24:58;;;;;;;6.13;2.70;;;10.00;80.10;;;;;;5092789;28;20060;-76
2022/10/07 03:27:24;;;;;;;7.20;2.95;;;10.00;80.10;;;;;;5073238;28;20123;-75
2022/10/07 03:29:49;;;;;;;7.90;2.92;;;9.90;80.10;;;;;;5092581;28;20047;-75
2022/10/07 03:32:15;;;;;;;8.10;2.90;;;10.00;80.80;;;;;;5092755;28;20103;-77
2022/10/07 03:34:40;;;;;;;5.78;2.80;;;9.90;80.10;;;;;;5092772;28;20115;-75
2022/10/07 03:37:06;;;;;;;10.40;3.00;;;9.90;80.10;;;;;;5074476;28;20024;-75
2022/10/07 03:39:32;;;;;;;7.63;3.08;;;9.90;80.20;;;;;;5092797;28;20024;-76
2022/10/07 03:41:57;;;;;;;9.07;2.92;;;9.90;80.30;;;;;;5074283;28;20130;-75
2022/10/07 03:44:23;;;;;;;9.00;2.70;;;9.90;80.20;;;;;;5074418;28;20078;-75
2022/10/07 03:46:50;;;;;;;6.03;2.65;;;9.90;80.20;;;;;;5092735;28;20048;-76
2022/10/07 03:49:16;;;;;;;6.22;2.38;;;9.80;80.30;;;;;;5092626;28;20463;-75
2022/10/07 03:51:41;;;;;;;7.63;2.97;;;9.80;80.30;;;;;;5092693;28;20468;-75
2022/10/07 03:54:07;;;;;;;7.80;2.75;;;9.80;80.30;;;;;;5092418;28;20048;-75
2022/10/07 03:56:33;;;;;;;5.75;2.90;;;9.80;80.50;;;;;;5092190;28;20089;-76
2022/10/07 03:58:59;;;;;;;5.80;2.58;;;9.80;80.40;;;;;;5092177;28;20043;-75
2022/10/07 04:01:24;;;;;;;5.70;2.78;;;9.80;80.50;;;;;;5092236;28;20028;-75
2022/10/07 04:03:50;;;;;;;8.38;3.40;;;9.80;80.50;;;;;;5073933;28;20020;-75
2022/10/07 04:06:16;;;;;;;9.40;2.97;;;9.80;80.50;;;;;;5073926;28;20051;-75
2022/10/07 04:08:43;;;;;;;6.00;2.38;;;9.80;80.50;;;;;;5091997;28;20024;-75
2022/10/07 04:11:09;;;;;;;6.75;2.63;;;9.80;80.60;;;;;;5091930;28;20692;-75
2022/10/07 04:13:35;;;;;;;5.78;2.80;;;9.70;80.60;;;;;;5073683;28;20024;-75
2022/10/07 04:16:08;;;;;;;7.13;2.42;;;9.70;80.60;;;;;;5091893;28;20035;-75
2022/10/07 04:18:34;;;;;;;5.65;2.63;;;9.70;80.70;;;;;;5091745;28;20039;-75
2022/10/07 04:21:00;;;;;;;5.97;2.42;;;9.80;80.70;;;;;;5073582;28;20024;-75
2022/10/07 04:23:25;;;;;;;8.98;2.80;;;9.80;80.70;;;;;;5091746;28;20024;-75
2022/10/07 04:25:51;;;;;;;6.00;2.70;;;9.80;80.70;;;;;;5091749;28;20385;-75
2022/10/07 04:28:22;;;;;;;7.97;2.72;;;9.80;80.90;;;;;;5091672;28;20028;-75
2022/10/07 04:30:50;;;;;;;7.22;2.60;;;9.80;80.90;;;;;;5073275;28;20042;-75
2022/10/07 04:33:17;;;;;;;6.57;2.42;;;9.80;80.90;;;;;;5091644;28;20081;-75
2022/10/07 04:35:43;;;;;;;6.82;2.40;;;9.80;80.90;;;;;;5073330;28;20031;-76
2022/10/07 04:38:11;;;;;;;7.90;2.65;;;9.80;80.90;;;;;;5072652;28;20097;-75
2022/10/07 04:40:42;;;;;;;9.25;2.85;;;9.80;80.90;;;;;;5073337;28;20085;-75
2022/10/07 04:43:18;;;;;;;7.30;2.45;;;9.80;81.00;;;;;;5091575;28;20027;-75
2022/10/07 04:45:48;;;;;;;5.85;2.38;;;9.80;81.00;;;;;;5073261;28;20031;-75
2022/10/07 04:48:16;;;;;;;9.80;2.60;;;9.80;81.00;;;;;;5091396;28;20074;-75
2022/10/07 04:50:43;;;;;;;7.55;3.05;;;9.80;81.00;;;;;;5073165;28;20031;-75
2022/10/07 04:53:10;;;;;;;10.25;3.03;;;9.80;81.10;;;;;;5073182;28;20502;-75
2022/10/07 04:55:37;;;;;;;6.43;2.42;;;9.70;81.10;;;;;;5091521;28;20036;-75
2022/10/07 04:58:03;;;;;;;7.82;2.67;;;9.70;81.80;;;;;;5091307;28;20488;-75
2022/10/07 05:00:29;;;;;;;9.60;2.85;;;9.70;81.20;;;;;;5091171;28;20028;-75
2022/10/07 05:02:55;;;;;;;7.13;2.83;;;9.70;81.40;;;;;;5073037;28;20051;-76
2022/10/07 05:05:20;;;;;;;8.27;2.78;;;9.70;81.30;;;;;;5091256;28;20502;-75
2022/10/07 05:07:50;;;;;;;9.23;2.75;;;9.70;81.40;;;;;;5091052;28;20035;-75
2022/10/07 05:10:16;;;;;;;7.28;3.15;;;9.70;81.40;;;;;;5091164;28;20024;-75
2022/10/07 05:12:42;;;;;;;6.63;2.70;;;9.60;81.40;;;;;;5091079;28;20040;-75
2022/10/07 05:15:09;;;;;;;7.90;2.72;;;9.60;82.00;;;;;;5090748;28;20043;-75
2022/10/07 05:17:34;;;;;;;6.00;2.50;;;9.70;81.50;;;;;;5091174;28;20430;-75
2022/10/07 05:20:01;;;;;;;5.97;2.92;;;9.60;81.50;;;;;;5090941;28;20031;-76
2022/10/07 05:22:26;;;;;;;9.20;2.97;;;9.60;81.50;;;;;;5072841;28;20026;-76
2022/10/07 05:24:52;;;;;;;8.52;2.88;;;9.60;81.60;;;;;;5072330;28;20111;-76
2022/10/07 05:27:18;;;;;;;8.40;2.70;;;9.60;81.60;;;;;;5091193;28;20101;-75
2022/10/07 05:29:43;;;;;;;9.45;2.92;;;9.60;81.70;;;;;;5091112;28;20044;-75
2022/10/07 05:32:09;;;;;;;12.20;3.72;;;9.60;81.70;;;;;;5072877;28;20028;-74
2022/10/07 05:34:35;;;;;;;6.90;2.90;;;9.60;81.70;;;;;;5072924;28;20032;-74
2022/10/07 05:37:00;;;;;;;9.40;3.35;;;9.60;81.70;;;;;;5090870;28;20043;-75
2022/10/07 05:39:26;;;;;;;8.60;2.90;;;9.50;81.60;;;;;;5072834;28;20020;-75
2022/10/07 05:41:51;;;;;;;7.10;3.08;;;9.60;81.70;;;;;;5090822;28;20024;-74
2022/10/07 05:44:17;;;;;;;11.18;3.00;;;9.60;81.70;;;;;;5090806;28;20039;-75
2022/10/07 05:46:43;;;;;;;7.93;3.30;;;9.60;81.70;;;;;;5090675;28;20395;-73
2022/10/07 05:49:08;;;;;;;8.35;2.78;;;9.50;81.70;;;;;;5072547;28;20028;-74
2022/10/07 05:51:34;;;;;;;6.07;2.70;;;9.60;81.80;;;;;;5094232;28;20038;-74
2022/10/07 05:53:59;;;;;;;7.93;3.03;;;9.60;81.80;;;;;;5076614;28;20050;-74
2022/10/07 05:56:25;;;;;;;8.18;2.72;;;9.50;81.70;;;;;;5095295;28;20060;-74
2022/10/07 05:58:51;;;;;;;8.38;3.08;;;9.60;81.70;;;;;;5094936;28;20032;-75
2022/10/07 06:01:23;;;;;;;8.32;3.53;;;9.50;81.70;;;;;;5094910;28;20095;-74
2022/10/07 06:03:58;;;;;;;8.48;3.25;;;9.50;81.70;;;;;;5094787;28;20032;-74
2022/10/07 06:06:24;;;;;;;7.10;3.20;;;9.40;81.90;;;;;;5094838;28;20032;-74
2022/10/07 06:08:51;;;;;;;10.68;3.25;;;9.50;82.00;;;;;;5076320;28;20471;-74
2022/10/07 06:14:02;;;;;;;13.45;3.60;;;9.50;82.00;;;;;;5094390;28;20089;-75
2022/10/07 06:16:28;;;;;;;10.73;3.42;;;9.50;81.90;;;;;;5094549;28;20031;-74
2022/10/07 06:18:54;;;;;;;9.90;3.22;;;9.50;81.90;;;;;;5094418;28;20032;-74
2022/10/07 06:21:26;;;;;;;11.20;4.03;;;9.50;81.90;;;;;;5094766;28;20062;-75
2022/10/07 06:23:53;;;;;;;15.63;3.85;;;9.60;81.90;;;;;;5094280;28;20111;-75
2022/10/07 06:26:20;;;;;;;9.25;3.72;;;9.60;81.90;;;;;;5094272;28;20028;-75
2022/10/07 06:28:46;;;;;;;11.93;4.05;;;9.60;81.90;;;;;;5075672;28;20400;-75
2022/10/07 06:31:14;;;;;;;8.75;3.63;;;9.60;81.90;;;;;;5076071;28;20028;-74
2022/10/07 06:33:40;;;;;;;8.13;3.10;;;9.60;82.00;;;;;;5076127;28;20364;-75
2022/10/07 06:36:08;;;;;;;8.73;3.20;;;9.70;82.00;;;;;;5076064;28;20031;-75
2022/10/07 06:38:34;;;;;;;11.43;3.25;;;9.70;82.00;;;;;;5075728;28;20031;-75
2022/10/07 06:41:01;;;;;;;8.50;2.85;;;9.80;82.00;;;;;;5094007;28;20051;-75
2022/10/07 06:43:36;;;;;;;8.55;2.65;;;9.80;81.90;;;;;;5093824;28;20027;-75
2022/10/07 06:46:04;;;;;;;5.35;2.60;;;10.00;82.00;;;;;;5093804;28;20124;-75
2022/10/07 06:48:31;;;;;;;9.80;2.88;;;10.00;81.80;;;;;;5093687;28;20120;-75
2022/10/07 06:50:58;;;;;;;11.38;3.70;;;10.10;81.80;;;;;;5075435;28;20582;-75
2022/10/07 06:53:24;;;;;;;10.88;3.03;;;10.20;81.70;;;;;;5075544;28;20502;-75
2022/10/07 06:55:53;;;;;;;9.32;3.10;;;10.30;81.60;;;;;;5093585;28;20094;-75
2022/10/07 06:58:22;;;;;;;5.35;2.85;;;10.30;81.50;;;;;;5075661;28;20070;-76
2022/10/07 07:00:49;;;;;;;8.95;2.72;;;10.40;81.60;;;;;;5093295;28;20039;-75
2022/10/07 07:03:15;;;;;;;11.13;2.70;;;10.40;81.50;;;;;;5093603;28;20031;-75
2022/10/07 07:05:42;;;;;;;9.35;3.28;;;10.50;81.40;;;;;;5075276;28;20044;-75
2022/10/07 07:08:08;;;;;;;9.00;3.00;;;10.60;81.40;;;;;;5093437;28;20453;-76
2022/10/07 07:10:39;;;;;;;10.45;3.10;;;10.70;81.30;;;;;;5093146;28;20077;-75
2022/10/07 07:13:06;;;;;;;8.88;3.22;;;10.80;81.20;;;;;;5075089;28;20502;-76
2022/10/07 07:15:32;;;;;;;9.98;3.10;;;10.90;81.10;;;;;;5075590;28;20032;-77
2022/10/07 07:17:58;;;;;;;9.98;3.05;;;11.00;81.00;;;;;;5090741;28;20046;-76
2022/10/07 07:20:24;;;;;;;5.57;2.70;;;11.20;80.80;;;;;;5093554;28;20102;-76
2022/10/07 07:22:51;;;;;;;10.73;3.88;;;11.30;80.60;;;;;;5074887;28;20028;-77
2022/10/07 07:25:18;;;;;;;6.88;2.60;;;11.40;80.40;;;;;;5093157;28;20012;-76
2022/10/07 07:27:46;;;;;;;9.10;2.60;;;11.60;80.20;;;;;;5093235;28;20028;-77
2022/10/07 07:30:12;;;;;;;8.48;3.10;;;11.60;80.00;;;;;;5092999;28;20441;-77
2022/10/07 07:32:39;;;;;;;9.75;2.58;;;11.70;80.00;;;;;;5093099;28;20165;-77
2022/10/07 07:35:05;;;;;;;8.75;2.90;;;11.70;80.00;;;;;;5093438;28;20077;-77
2022/10/07 07:37:32;;;;;;;11.88;2.80;;;11.70;79.90;;;;;;5092943;28;20455;-76
2022/10/07 07:39:58;;;;;;;9.20;2.50;;;11.70;79.90;;;;;;5093447;28;20031;-77
2022/10/07 07:42:23;;;;;;;10.05;2.80;;;11.70;79.90;;;;;;5093464;28;20032;-77
2022/10/07 07:44:49;;;;;;;7.57;2.70;;;11.70;80.00;;;;;;5074974;28;20036;-77
2022/10/07 07:47:15;;;;;;;9.95;2.80;;;11.80;80.00;;;;;;5075080;28;20024;-77
2022/10/07 07:49:41;;;;;;;9.20;2.80;;;11.80;80.00;;;;;;5092846;28;20488;-77
2022/10/07 07:52:08;;;;;;;9.32;3.00;;;11.80;79.90;;;;;;5093367;28;20095;-77
2022/10/07 07:54:36;;;;;;;9.40;2.53;;;11.80;79.90;;;;;;5093497;28;20364;-77
2022/10/07 07:57:02;;;;;;;10.13;3.08;;;11.90;79.90;;;;;;5093347;28;20020;-76
2022/10/07 07:59:31;;;;;;;10.65;3.13;;;11.90;79.80;;;;;;5075653;28;20028;-77
2022/10/07 08:01:57;;;;;;;7.90;2.72;;;12.00;79.80;;;;;;5094114;28;20024;-77
2022/10/07 08:04:23;;;;;;;7.55;2.90;;;12.00;79.70;;;;;;5051645;28;20048;-77
2022/10/07 08:06:50;;;;;;;10.80;3.20;;;12.10;79.60;;;;;;5035299;28;20480;-77
2022/10/07 08:09:15;;;;;;;9.43;3.10;;;12.20;79.50;;;;;;5052301;28;20048;-77
2022/10/07 08:11:44;;;;;;;7.72;3.03;;;12.30;79.30;;;;;;5058551;28;20037;-77
2022/10/07 08:14:12;;;;;;;8.23;3.10;;;12.30;79.10;;;;;;5053330;28;20075;-77
2022/10/07 08:16:38;;;;;;;11.02;2.90;;;12.40;79.20;;;;;;5068588;28;20429;-77
2022/10/07 08:19:04;;;;;;;8.45;3.10;;;12.40;79.10;;;;;;5067333;28;20033;-77
2022/10/07 08:21:33;;;;;;;8.82;2.80;;;12.40;79.10;;;;;;5066343;28;20140;-77
2022/10/07 08:24:01;;;;;;;10.38;2.88;;;12.40;79.10;;;;;;5048701;28;20071;-77
2022/10/07 08:26:30;;;;;;;9.55;2.60;;;12.40;79.10;;;;;;5050112;28;20029;-77
2022/10/07 08:28:56;;;;;;;7.90;2.55;;;12.40;79.10;;;;;;5049118;28;20033;-77
2022/10/07 08:31:26;;;;;;;8.65;2.60;;;12.50;79.10;;;;;;5064636;28;20529;-77
2022/10/07 08:33:52;;;;;;;10.45;3.80;;;12.50;78.90;;;;;;5048559;28;20025;-75
2022/10/07 08:36:20;;;;;;;9.70;2.88;;;12.60;78.80;;;;;;5091913;28;20074;-77
2022/10/07 08:38:48;;;;;;;7.35;2.53;;;12.70;78.70;;;;;;5097844;28;20020;-78
2022/10/07 08:41:38;;;;;;;10.65;2.58;;;12.70;78.50;;;;;;5078702;28;20035;-79
2022/10/07 08:44:17;;;;;;;14.00;2.50;;;12.80;78.50;;;;;;5097891;28;20039;-78
2022/10/07 08:47:02;;;;;;;10.48;2.58;;;12.80;78.40;;;;;;5079039;28;20024;-78
2022/10/07 08:50:02;;;;;;;8.55;2.33;;;12.90;78.40;;;;;;5097170;28;20024;-78
2022/10/07 08:52:43;;;;;;;8.60;2.50;;;13.00;78.30;;;;;;5077812;28;20031;-77
2022/10/07 08:55:43;;;;;;;7.20;2.00;;;13.00;78.20;;;;;;5074600;28;20032;-76
2022/10/07 08:58:31;;;;;;;5.90;1.90;;;13.10;78.10;;;;;;5095758;28;20028;-77
2022/10/07 09:01:35;;;;;;;6.82;2.13;;;13.30;77.90;;;;;;5092005;28;20028;-76
2022/10/07 09:04:16;;;;;;;9.02;2.25;;;13.40;78.30;;;;;;5053554;28;20062;-76
2022/10/07 09:06:50;;;;;;;7.60;2.00;;;13.50;77.40;;;;;;5091616;28;20028;-76
2022/10/07 09:09:39;;;;;;;10.70;2.15;;;13.70;77.20;;;;;;5091743;28;20106;-76
2022/10/07 09:12:12;;;;;;;5.47;1.75;;;13.80;77.10;;;;;;5072639;28;20035;-76
2022/10/07 09:14:41;;;;;;;10.23;2.20;;;13.90;76.80;;;;;;5073075;28;20028;-76
2022/10/07 09:17:25;;;;;;;7.97;2.00;;;14.00;76.60;;;;;;5091301;28;20032;-76
2022/10/07 09:19:57;;;;;;;6.32;1.85;;;14.20;76.40;;;;;;5091100;28;20111;-76
2022/10/07 09:22:38;;;;;;;8.38;2.00;;;14.20;76.20;;;;;;5072850;28;20487;-76
2022/10/07 09:25:10;;;;;;;8.15;2.00;;;14.30;76.00;;;;;;5091231;28;20070;-76
2022/10/07 09:27:35;;;;;;;8.95;2.15;;;14.40;75.80;;;;;;5072915;28;20487;-76
2022/10/07 09:30:01;;;;;;;6.35;2.03;;;14.60;75.70;;;;;;5090812;28;20059;-76
2022/10/07 09:32:27;;;;;;;6.68;1.73;;;14.70;75.40;;;;;;5072788;28;20395;-76
2022/10/07 09:34:53;;;;;;;10.82;2.15;;;14.70;75.20;;;;;;5072657;28;20115;-76
2022/10/07 09:37:28;;;;;;;7.82;2.28;;;14.80;74.90;;;;;;5074188;28;20032;-77
2022/10/07 09:40:15;;;;;;;7.13;1.70;;;14.90;74.60;;;;;;5093115;28;20077;-77
2022/10/07 09:42:44;;;;;;;8.40;2.10;;;14.90;74.60;;;;;;5074445;28;20032;-77
2022/10/07 09:45:32;;;;;;;7.63;2.03;;;15.00;74.50;;;;;;5092805;28;20198;-78
2022/10/07 09:48:05;;;;;;;8.50;1.90;;;15.00;74.40;;;;;;5071974;28;20067;-78
2022/10/07 09:50:36;;;;;;;4.43;1.67;;;15.10;74.40;;;;;;5091153;28;20447;-77
2022/10/07 09:53:03;;;;;;;8.20;2.17;;;15.20;74.30;;;;;;5091042;28;20021;-77
2022/10/07 09:55:33;;;;;;;8.20;1.70;;;15.20;74.10;;;;;;5091169;28;20515;-77
2022/10/07 09:58:01;;;;;;;7.55;1.92;;;15.20;73.90;;;;;;5073131;28;20027;-76
2022/10/07 10:00:27;;;;;;;7.57;2.15;;;15.30;73.80;;;;;;5073080;28;20427;-76
2022/10/07 10:03:02;;;;;;;6.55;2.00;;;15.40;73.60;;;;;;5091254;28;20025;-76
2022/10/07 10:05:34;;;;;;;9.30;1.90;;;15.50;73.40;;;;;;5091273;28;20070;-78
2022/10/07 10:08:03;;;;;;;5.05;1.88;;;15.50;73.20;;;;;;5091810;28;20412;-78
2022/10/07 10:10:34;;;;;;;9.30;2.00;;;15.60;73.20;;;;;;5091205;28;20426;-77
2022/10/07 10:13:02;;;;;;;5.25;1.98;;;15.70;73.10;;;;;;5072750;28;20024;-77
2022/10/07 10:15:42;;;;;;;7.75;1.70;;;15.80;72.90;;;;;;5072711;28;20054;-76
2022/10/07 10:18:28;;;;;;;6.65;2.13;;;15.80;72.30;;;;;;5091213;28;20028;-78
2022/10/07 10:20:54;;;;;;;8.18;2.42;;;15.90;72.30;;;;;;5091080;28;20103;-78
2022/10/07 10:23:34;;;;;;;8.45;2.08;;;15.90;72.20;;;;;;5073078;28;20571;-76
2022/10/07 10:26:25;;;;;;;8.85;1.90;;;16.10;72.10;;;;;;5087953;28;20113;-77
2022/10/07 10:29:34;;;;;;;10.27;1.63;;;16.10;71.70;;;;;;5069327;28;20063;-77
2022/10/07 10:32:20;;;;;;;10.77;1.80;;;16.20;71.60;;;;;;5070576;28;20035;-77
2022/10/07 10:35:12;;;;;;;7.53;1.55;;;16.30;71.40;;;;;;5070461;28;20036;-77
2022/10/07 10:37:50;;;;;;;6.05;1.80;;;16.30;71.30;;;;;;5073736;28;20077;-77
2022/10/07 10:41:05;;;;;;;7.05;1.80;;;16.40;71.00;;;;;;5073037;28;20046;-78
2022/10/07 10:44:01;;;;;;;7.80;2.33;;;16.50;70.50;;;;;;5071593;28;20664;-78
2022/10/07 10:46:57;;;;;;;5.05;1.63;;;16.50;70.10;;;;;;5068740;28;20134;-77
2022/10/07 10:49:41;;;;;;;9.25;1.80;;;16.60;69.90;;;;;;5071645;28;20040;-77
2022/10/07 10:52:10;;;;;;;4.63;1.35;;;16.70;69.60;;;;;;5074059;28;20047;-77
2022/10/07 10:54:59;;;;;;;4.35;1.45;;;16.70;69.10;;;;;;5071769;28;20115;-77
2022/10/07 10:57:47;;;;;;;6.47;1.45;;;16.70;69.00;;;;;;5071466;28;20032;-77
2022/10/07 11:00:21;;;;;;;5.43;1.60;;;16.80;69.00;;;;;;5071452;28;20036;-77
2022/10/07 11:03:03;;;;;;;;;;;16.90;68.60;;;;;;5072192;28;20454;-79
2022/10/07 11:05:38;;;;;;;8.57;1.75;;;17.00;68.40;;;;;;5054873;28;19908;-78
2022/10/07 11:08:25;;;;;;;5.75;1.83;;;17.00;67.90;;;;;;5055009;28;20034;-77
2022/10/07 11:11:16;;;;;;;7.20;1.67;;;17.00;67.70;;;;;;5071614;28;20056;-77
2022/10/07 11:13:57;;;;;;;10.60;1.80;;;16.90;67.10;;;;;;5038167;28;20395;-78
2022/10/07 11:16:35;;;;;;;7.90;1.75;;;16.90;67.50;;;;;;5073970;28;20067;-78
2022/10/07 11:19:17;;;;;;;4.50;1.50;;;16.90;67.40;;;;;;5074007;28;20054;-77
2022/10/07 11:21:47;;;;;;;6.22;1.65;;;16.90;67.70;;;;;;5074068;28;20021;-77
2022/10/07 11:24:18;;;;;;;5.93;1.45;;;16.90;67.00;;;;;;5069958;28;20094;-77
2022/10/07 11:26:49;;;;;;;3.80;1.20;;;16.90;67.00;;;;;;5073645;28;20037;-77
2022/10/07 11:29:30;;;;;;;4.25;1.23;;;16.90;67.00;;;;;;5082048;28;20503;-76
2022/10/07 11:32:37;;;;;;;6.40;1.48;;;16.90;66.80;;;;;;5094168;28;20024;-77
2022/10/07 11:35:06;;;;;;;8.80;1.60;;;17.00;66.90;;;;;;5073372;28;20036;-77
2022/10/07 11:37:59;;;;;;;5.50;1.20;;;17.00;66.90;;;;;;5094131;28;20062;-78
2022/10/07 11:40:29;;;;;;;5.32;1.42;;;17.10;66.80;;;;;;5076133;28;20094;-78
2022/10/07 11:42:58;;;;;;;2.58;1.17;;;17.10;66.70;;;;;;5075302;28;20020;-77
2022/10/07 11:45:32;;;;;;;3.13;1.10;;;17.20;66.50;;;;;;5074882;28;20024;-77
2022/10/07 11:48:03;;;;;;;5.50;1.55;;;17.30;66.30;;;;;;5091908;28;20024;-76
2022/10/07 11:50:34;;;;;;;4.72;1.25;;;17.30;66.00;;;;;;5092977;28;20073;-76
2022/10/07 11:53:08;;;;;;;7.38;1.60;;;17.30;65.90;;;;;;5074725;28;20063;-77
2022/10/07 11:55:38;;;;;;;6.13;1.75;;;17.30;65.90;;;;;;5092696;28;20048;-77
2022/10/07 11:58:05;;;;;;;5.75;1.55;;;17.40;65.70;;;;;;5074856;28;20046;-76
2022/10/07 12:00:38;;;;;;;8.40;1.95;;;17.40;65.70;;;;;;5092898;28;20466;-76
2022/10/07 12:03:18;;;;;;;7.32;1.67;;;17.50;65.50;;;;;;5074557;28;20471;-76
2022/10/07 12:05:52;;;;;;;6.25;1.50;;;17.50;65.50;;;;;;5074313;28;20028;-77
2022/10/07 12:08:23;;;;;;;6.45;1.65;;;17.50;65.40;;;;;;5092567;28;20031;-76
2022/10/07 12:10:54;;;;;;;5.50;1.52;;;17.60;65.30;;;;;;5074241;28;20032;-76
2022/10/07 12:13:19;;;;;;;4.50;1.30;;;17.70;65.00;;;;;;5092423;28;20056;-76
2022/10/07 12:15:46;;;;;;;5.13;1.45;;;17.80;64.80;;;;;;5074144;28;20460;-76
2022/10/07 12:18:14;;;;;;;3.67;1.42;;;17.80;65.00;;;;;;5073660;28;20048;-76
2022/10/07 12:20:58;;;;;;;3.67;1.40;;;17.80;64.00;;;;;;5092192;28;20407;-76
2022/10/07 12:23:27;;;;;;;;;;;17.80;63.70;;;;;;5074295;28;20031;-76
2022/10/07 12:25:54;;;;;;;4.60;1.40;;;17.80;64.00;;;;;;5073922;28;19927;-77
2022/10/07 12:28:25;;;;;;;6.72;1.73;;;17.90;64.30;;;;;;5073739;28;20032;-78
2022/10/07 12:30:58;;;;;;;6.35;1.65;;;18.00;63.60;;;;;;5091940;28;20539;-76
2022/10/07 12:33:32;;;;;;;4.82;1.40;;;18.00;63.60;;;;;;5073540;28;20079;-77
2022/10/07 12:35:57;;;;;;;;;;;18.10;63.70;;;;;;5092321;28;20600;-77
2022/10/07 12:38:25;;;;;;;6.18;1.50;;;18.10;63.60;;;;;;5073991;28;19908;-77
2022/10/07 12:41:01;;;;;;;4.65;1.50;;;18.10;63.30;;;;;;5073701;28;20028;-77
2022/10/07 12:43:35;;;;;;;7.20;1.40;;;18.10;63.10;;;;;;5073517;28;20031;-78
2022/10/07 12:46:09;;;;;;;3.90;1.23;;;18.10;63.10;;;;;;5091645;28;20070;-77
2022/10/07 12:48:59;;;;;;;8.02;1.60;;;18.20;63.10;;;;;;5091630;28;20036;-77
2022/10/07 12:51:43;;;;;;;4.90;1.38;;;18.20;62.60;;;;;;5091464;28;20107;-77
2022/10/07 12:54:23;;;;;;;7.13;1.73;;;18.30;62.60;;;;;;5091649;28;20024;-78
2022/10/07 12:56:49;;;;;;;6.28;1.50;;;18.40;62.30;;;;;;5091384;28;20100;-76
2022/10/07 12:59:52;;;;;;;4.47;1.23;;;18.40;62.30;;;;;;5072700;28;20110;-77
2022/10/07 13:02:55;;;;;;;3.08;1.42;;;18.50;62.00;;;;;;5091466;28;20095;-77
2022/10/07 13:06:22;;;;;;;6.27;1.50;;;18.60;61.60;;;;;;5072873;28;20475;-77
2022/10/07 13:09:01;;;;;;;6.63;1.58;;;18.70;61.30;;;;;;5091231;28;20069;-77
2022/10/07 13:12:05;;;;;;;6.95;1.85;;;18.70;61.20;;;;;;5073085;28;20028;-77
2022/10/07 13:14:54;;;;;;;2.67;1.10;;;18.80;60.90;;;;;;5091171;28;20036;-76
2022/10/07 13:17:45;;;;;;;7.45;1.63;;;18.80;60.60;;;;;;5091246;28;20467;-77